Time;durP1;ratioP1;P1;durP2;ratioP2;P2;SDS_P1;SDS_P2;PMS_P1;PMS_P2;Temp;Humidity;BMP_temperature;BMP_pressure;BME280_temperature;BME280_humidity;BME280_pressure;Samples;Min_cycle;Max_cycle;Signal;HPM_P1;HPM_P2
2021/04/29 00:00:40;;;;;;;11.10;9.87;;;;;;;15.49;45.19;98885.84;5102308;28;20984;-62
2021/04/29 00:03:06;;;;;;;11.23;10.13;;;;;;;15.32;45.00;98873.81;5103565;28;20430;-62
2021/04/29 00:05:33;;;;;;;12.10;9.80;;;;;;;15.12;45.58;98863.84;5102836;28;20463;-62
2021/04/29 00:07:59;;;;;;;13.80;10.57;;;;;;;15.25;45.01;98868.41;5102541;28;20496;-62
2021/04/29 00:10:29;;;;;;;11.00;9.93;;;;;;;14.95;46.41;98866.06;5101536;28;20470;-62
2021/04/29 00:12:56;;;;;;;12.33;10.93;;;;;;;14.94;46.27;98859.00;5102784;28;20478;-63
2021/04/29 00:15:22;;;;;;;11.10;9.93;;;;;;;15.11;46.48;98864.03;5102696;28;20446;-62
2021/04/29 00:17:49;;;;;;;11.50;10.30;;;;;;;15.13;46.27;98854.72;5102748;28;20447;-63
2021/04/29 00:20:17;;;;;;;11.30;10.20;;;;;;;15.04;46.74;98861.31;5101509;28;20455;-63
2021/04/29 00:22:44;;;;;;;12.40;10.53;;;;;;;15.10;45.97;98851.59;5103271;28;20424;-63
2021/04/29 00:25:11;;;;;;;11.53;9.77;;;;;;;15.09;46.07;98852.66;5102299;28;20447;-63
2021/04/29 00:27:37;;;;;;;13.47;12.10;;;;;;;14.95;46.21;98862.56;5102151;28;20446;-63
2021/04/29 00:30:06;;;;;;;12.43;10.23;;;;;;;15.00;46.36;98860.91;5102132;28;20504;-64
2021/04/29 00:32:32;;;;;;;12.50;9.73;;;;;;;15.01;46.44;98862.53;5082541;28;20480;-62
2021/04/29 00:34:58;;;;;;;11.90;9.80;;;;;;;15.15;46.19;98852.63;5082714;28;20440;-62
2021/04/29 00:37:24;;;;;;;11.97;9.47;;;;;;;14.94;46.46;98853.63;5081836;28;20480;-62
2021/04/29 00:39:51;;;;;;;10.90;9.30;;;;;;;15.11;46.71;98848.72;5080675;28;20462;-62
2021/04/29 00:42:17;;;;;;;11.17;9.97;;;;;;;14.76;46.86;98854.22;5085130;28;20536;-62
2021/04/29 00:44:44;;;;;;;9.90;8.90;;;;;;;14.80;47.50;98843.88;5102491;28;20817;-63
2021/04/29 00:47:11;;;;;;;9.13;8.00;;;;;;;14.93;47.29;98843.06;5102370;28;20463;-63
2021/04/29 00:49:38;;;;;;;8.10;7.00;;;;;;;15.06;46.64;98843.09;5093836;28;20455;-64
2021/04/29 00:52:04;;;;;;;9.83;5.40;;;;;;;14.86;47.22;98851.16;5094692;28;20474;-63
2021/04/29 00:54:31;;;;;;;7.10;6.40;;;;;;;14.87;47.32;98855.47;5090777;28;20468;-64
2021/04/29 00:56:57;;;;;;;6.10;5.60;;;;;;;14.52;48.35;98844.78;5081222;28;20472;-62
2021/04/29 00:59:23;;;;;;;5.37;4.87;;;;;;;14.95;47.41;98852.63;5081714;28;20447;-62
2021/04/29 01:01:53;;;;;;;4.43;4.03;;;;;;;14.92;47.55;98858.41;5081433;28;20472;-62
2021/04/29 01:04:25;;;;;;;4.50;4.00;;;;;;;14.88;47.62;98870.59;5081505;28;20462;-62
2021/04/29 01:06:54;;;;;;;4.07;3.77;;;;;;;14.94;47.64;98872.47;5080863;28;20845;-63
2021/04/29 01:09:23;;;;;;;4.20;3.40;;;;;;;14.88;47.71;98857.16;5080477;28;20455;-63
2021/04/29 01:11:54;;;;;;;4.47;4.07;;;;;;;14.95;47.66;98857.19;5080491;28;20479;-63
2021/04/29 01:14:21;;;;;;;4.73;4.33;;;;;;;15.08;47.53;98857.19;5061649;28;20477;-62
2021/04/29 01:16:47;;;;;;;4.13;3.73;;;;;;;15.13;47.54;98861.97;5064120;28;20494;-62
2021/04/29 01:19:16;;;;;;;3.90;3.47;;;;;;;15.15;47.52;98859.88;5081256;28;20460;-62
2021/04/29 01:21:44;;;;;;;3.87;3.53;;;;;;;14.99;48.00;98870.00;5080707;28;20490;-63
2021/04/29 01:24:14;;;;;;;4.97;4.47;;;;;;;15.09;47.80;98868.81;5081912;28;20428;-62
2021/04/29 01:26:49;;;;;;;4.07;3.67;;;;;;;14.95;48.02;98878.69;5080821;28;20476;-63
2021/04/29 01:29:17;;;;;;;4.50;3.87;;;;;;;15.02;48.37;98880.38;5100472;28;20485;-63
2021/04/29 01:31:45;;;;;;;4.77;4.37;;;;;;;14.80;48.77;98871.59;5092465;28;20630;-63
2021/04/29 01:34:14;;;;;;;4.23;3.60;;;;;;;15.13;48.24;98867.34;5081062;28;20507;-63
2021/04/29 01:36:41;;;;;;;4.40;4.00;;;;;;;15.00;48.41;98871.66;5080439;28;20472;-62
2021/04/29 01:39:09;;;;;;;4.60;4.07;;;;;;;14.99;48.45;98861.94;5080664;28;20478;-62
2021/04/29 01:41:37;;;;;;;6.47;3.97;;;;;;;15.12;48.26;98865.69;5073791;28;21000;-63
2021/04/29 01:44:05;;;;;;;4.90;3.63;;;;;;;15.23;47.89;98863.22;5081277;28;20435;-63
2021/04/29 01:46:32;;;;;;;3.77;3.47;;;;;;;15.10;48.50;98873.13;5080843;28;20464;-62
2021/04/29 01:48:59;;;;;;;3.80;3.37;;;;;;;15.23;47.97;98865.09;5081944;28;20539;-62
2021/04/29 01:51:25;;;;;;;4.20;3.10;;;;;;;15.02;48.68;98864.22;5080975;28;20479;-62
2021/04/29 01:53:51;;;;;;;4.20;3.80;;;;;;;15.28;47.85;98864.50;5081057;28;20511;-62
2021/04/29 01:56:19;;;;;;;3.97;3.57;;;;;;;15.03;48.37;98865.03;5080846;28;20522;-63
2021/04/29 01:58:45;;;;;;;3.50;3.20;;;;;;;15.07;48.36;98861.75;5081250;28;20452;-62
2021/04/29 02:01:12;;;;;;;4.00;3.57;;;;;;;15.18;48.44;98870.25;5080695;28;20490;-64
2021/04/29 02:03:39;;;;;;;3.43;3.10;;;;;;;14.86;49.42;98864.59;5083527;28;21047;-62
2021/04/29 02:06:06;;;;;;;4.30;3.37;;;;;;;15.14;48.65;98860.94;5084876;28;20471;-63
2021/04/29 02:08:32;;;;;;;4.50;3.60;;;;;;;14.99;48.96;98875.38;5085055;28;20456;-62
2021/04/29 02:10:59;;;;;;;3.83;3.10;;;;;;;14.84;49.39;98874.72;5083672;28;20660;-62
2021/04/29 02:13:28;;;;;;;3.87;3.37;;;;;;;15.17;48.67;98865.91;5098212;28;20496;-62
2021/04/29 02:15:56;;;;;;;4.17;3.80;;;;;;;14.86;49.46;98870.00;5086179;28;20464;-62
2021/04/29 02:18:24;;;;;;;4.30;3.93;;;;;;;14.86;49.98;98873.50;5085243;28;20444;-62
2021/04/29 02:20:51;;;;;;;4.57;3.70;;;;;;;14.83;50.27;98870.38;5083798;28;20836;-62
2021/04/29 02:23:19;;;;;;;4.77;4.37;;;;;;;14.87;49.73;98863.56;5085662;28;20439;-62
2021/04/29 02:25:47;;;;;;;4.70;4.10;;;;;;;14.41;50.81;98864.16;5083669;28;20475;-62
2021/04/29 02:28:14;;;;;;;5.40;4.80;;;;;;;14.57;51.10;98863.84;5087319;28;20448;-62
2021/04/29 02:30:41;;;;;;;4.70;4.30;;;;;;;14.54;50.92;98858.84;5102412;28;20487;-62
2021/04/29 02:33:07;;;;;;;5.03;4.53;;;;;;;14.37;51.15;98862.91;5104812;28;20470;-62
2021/04/29 02:35:34;;;;;;;6.10;4.43;;;;;;;14.35;51.42;98867.66;5104467;28;20466;-62
2021/04/29 02:38:01;;;;;;;4.00;3.63;;;;;;;14.55;51.34;98857.84;5104955;28;20459;-62
2021/04/29 02:40:28;;;;;;;5.23;4.57;;;;;;;14.60;51.26;98855.41;5103955;28;20466;-62
2021/04/29 02:42:54;;;;;;;9.87;5.23;;;;;;;14.34;51.94;98848.03;5104038;28;20439;-61
2021/04/29 02:45:21;;;;;;;5.13;4.63;;;;;;;14.02;53.45;98846.81;5104804;28;20446;-62
2021/04/29 02:47:49;;;;;;;4.70;4.30;;;;;;;14.04;53.84;98852.81;5104465;28;20442;-63
2021/04/29 02:50:18;;;;;;;5.00;4.50;;;;;;;14.19;53.50;98847.31;5103727;28;20455;-62
2021/04/29 02:52:45;;;;;;;6.03;4.67;;;;;;;14.22;53.53;98855.81;5104209;28;20517;-63
2021/04/29 02:55:13;;;;;;;5.40;4.90;;;;;;;14.02;54.50;98853.00;5103524;28;20485;-62
2021/04/29 02:57:39;;;;;;;5.30;4.80;;;;;;;13.82;55.68;98855.56;5104420;28;20908;-62
2021/04/29 03:00:07;;;;;;;4.67;4.27;;;;;;;14.23;54.69;98853.94;5103499;28;20450;-62
2021/04/29 03:02:34;;;;;;;5.13;4.63;;;;;;;14.15;55.23;98865.69;5104647;28;20478;-63
2021/04/29 03:05:00;;;;;;;5.47;4.97;;;;;;;14.01;56.16;98866.63;5104609;28;20442;-63
2021/04/29 03:07:26;;;;;;;5.67;5.17;;;;;;;13.87;56.93;98858.50;5104088;28;20498;-63
2021/04/29 03:09:53;;;;;;;5.37;4.87;;;;;;;14.30;55.92;98866.41;5102921;28;20447;-64
2021/04/29 03:12:19;;;;;;;5.57;5.10;;;;;;;13.80;57.68;98860.31;5103337;28;20509;-63
2021/04/29 03:14:45;;;;;;;5.17;4.70;;;;;;;14.11;57.31;98859.91;5102664;28;20494;-63
2021/04/29 03:17:11;;;;;;;4.90;4.50;;;;;;;14.38;56.74;98856.50;5103583;28;20482;-63
2021/04/29 03:19:37;;;;;;;6.20;5.60;;;;;;;14.09;57.84;98853.03;5104140;28;20489;-63
2021/04/29 03:22:04;;;;;;;6.10;5.53;;;;;;;13.78;58.75;98856.13;5103701;28;20478;-63
2021/04/29 03:24:30;;;;;;;6.13;5.53;;;;;;;13.65;59.38;98855.03;5103965;28;20446;-63
2021/04/29 03:26:57;;;;;;;8.50;5.63;;;;;;;13.71;59.60;98858.78;5102923;28;20529;-63
2021/04/29 03:29:23;;;;;;;6.30;5.80;;;;;;;13.55;59.87;98857.22;5103732;28;20871;-62
2021/04/29 03:31:49;;;;;;;6.03;5.53;;;;;;;13.74;59.12;98856.53;5103175;28;20470;-63
2021/04/29 03:34:15;;;;;;;5.90;5.40;;;;;;;13.71;59.23;98848.03;5103747;28;20487;-63
2021/04/29 03:36:41;;;;;;;6.50;5.90;;;;;;;13.64;59.79;98849.84;5103001;28;20505;-63
2021/04/29 03:39:08;;;;;;;6.27;5.67;;;;;;;13.59;59.56;98858.47;5103341;28;20458;-63
2021/04/29 03:41:34;;;;;;;6.30;5.73;;;;;;;13.78;59.32;98850.78;5102914;28;20996;-63
2021/04/29 03:44:01;;;;;;;7.27;6.13;;;;;;;13.63;59.56;98850.88;5103186;28;20435;-63
2021/04/29 03:46:27;;;;;;;6.40;5.80;;;;;;;14.04;58.58;98855.50;5102985;28;21006;-63
2021/04/29 03:48:53;;;;;;;6.30;5.70;;;;;;;14.07;58.27;98857.78;5103131;28;20872;-63
2021/04/29 03:51:19;;;;;;;7.10;6.40;;;;;;;13.87;58.84;98865.69;5102277;28;20495;-63
2021/04/29 03:53:45;;;;;;;6.33;5.73;;;;;;;13.94;58.52;98859.38;5103740;28;20516;-63
2021/04/29 03:56:11;;;;;;;6.90;6.23;;;;;;;13.62;59.70;98865.31;5102310;28;20482;-62
2021/04/29 03:58:38;;;;;;;5.93;5.43;;;;;;;14.13;58.23;98860.53;5103036;28;20454;-63
2021/04/29 04:01:05;;;;;;;6.63;6.03;;;;;;;13.90;58.96;98862.63;5102260;28;20475;-63
2021/04/29 04:03:31;;;;;;;7.23;6.17;;;;;;;13.64;60.41;98871.31;5103328;28;20508;-63
2021/04/29 04:05:57;;;;;;;7.87;7.07;;;;;;;13.78;60.58;98858.81;5102611;28;20495;-64
2021/04/29 04:08:23;;;;;;;8.07;7.37;;;;;;;13.54;61.55;98869.81;5103560;28;20439;-63
2021/04/29 04:10:50;;;;;;;8.80;7.90;;;;;;;13.42;61.97;98868.69;5100619;28;20974;-63
2021/04/29 04:13:18;;;;;;;9.27;8.30;;;;;;;13.29;62.52;98857.78;5102098;28;20536;-63
2021/04/29 04:15:44;;;;;;;8.80;8.00;;;;;;;13.46;62.32;98869.13;5102592;28;20542;-63
2021/04/29 04:18:11;;;;;;;11.23;9.47;;;;;;;13.29;62.85;98861.28;5101172;28;20974;-64
2021/04/29 04:20:37;;;;;;;9.67;8.77;;;;;;;13.53;62.31;98868.13;5097896;28;20984;-63
2021/04/29 04:23:03;;;;;;;12.30;11.00;;;;;;;13.22;63.44;98859.56;5098251;28;20446;-63
2021/04/29 04:25:30;;;;;;;11.50;10.40;;;;;;;13.51;62.54;98859.47;5101525;28;20474;-63
2021/04/29 04:27:56;;;;;;;11.63;10.53;;;;;;;13.25;63.82;98857.34;5110657;28;20479;-63
2021/04/29 04:30:22;;;;;;;13.60;12.07;;;;;;;13.12;64.25;98850.00;5099434;28;20490;-63
2021/04/29 04:32:49;;;;;;;12.77;11.43;;;;;;;12.88;65.17;98845.84;5101572;28;20450;-63
2021/04/29 04:35:16;;;;;;;13.43;12.10;;;;;;;13.04;65.02;98855.47;5100827;28;20454;-63
2021/04/29 04:37:42;;;;;;;14.10;12.60;;;;;;;13.07;65.52;98848.88;5101923;28;20439;-62
2021/04/29 04:40:09;;;;;;;14.27;12.73;;;;;;;13.11;66.05;98858.25;5099478;28;20443;-62
2021/04/29 04:42:35;;;;;;;15.97;13.37;;;;;;;13.22;65.57;98856.88;5099801;28;20447;-63
2021/04/29 04:45:01;;;;;;;17.90;13.50;;;;;;;13.08;66.10;98859.44;5087581;28;20474;-63
2021/04/29 04:47:27;;;;;;;16.60;14.70;;;;;;;12.76;66.89;98860.75;5099605;28;20491;-62
2021/04/29 04:49:54;;;;;;;17.20;15.40;;;;;;;12.90;66.83;98865.25;5100362;28;20467;-62
2021/04/29 04:52:21;;;;;;;16.90;14.70;;;;;;;12.94;66.71;98863.84;5100842;28;21013;-62
2021/04/29 04:54:48;;;;;;;16.30;14.60;;;;;;;12.97;66.63;98862.63;5100246;28;20530;-61
2021/04/29 04:57:15;;;;;;;16.97;14.60;;;;;;;13.04;66.63;98865.38;5098451;28;20478;-61
2021/04/29 04:59:42;;;;;;;14.33;12.83;;;;;;;13.14;66.18;98858.69;5100812;28;20550;-61
2021/04/29 05:02:08;;;;;;;16.77;15.17;;;;;;;12.84;67.18;98867.84;5097927;28;20482;-62
2021/04/29 05:04:35;;;;;;;16.80;15.00;;;;;;;12.71;67.14;98864.00;5100824;28;20435;-61
2021/04/29 05:07:03;;;;;;;16.97;15.17;;;;;;;13.07;66.68;98860.47;5100576;28;20512;-62
2021/04/29 05:09:30;;;;;;;17.13;14.20;;;;;;;13.09;66.88;98868.31;5099026;28;20461;-62
2021/04/29 05:11:57;;;;;;;16.43;14.30;;;;;;;13.04;66.66;98863.53;5099584;28;20475;-62
2021/04/29 05:14:23;;;;;;;16.87;14.27;;;;;;;13.05;66.45;98867.84;5100621;28;20475;-61
2021/04/29 05:16:49;;;;;;;17.63;15.77;;;;;;;13.36;65.67;98867.56;5098918;28;21023;-61
2021/04/29 05:19:15;;;;;;;15.37;13.87;;;;;;;13.54;65.24;98875.19;5100355;28;20486;-61
2021/04/29 05:21:42;;;;;;;16.30;14.60;;;;;;;13.61;64.86;98875.25;5099412;28;20467;-62
2021/04/29 05:24:09;;;;;;;15.50;14.00;;;;;;;13.10;66.04;98864.63;5099522;28;20946;-61
2021/04/29 05:26:36;;;;;;;15.73;13.97;;;;;;;13.61;64.64;98866.34;5099517;28;20486;-62
2021/04/29 05:29:03;;;;;;;17.23;15.00;;;;;;;13.31;65.70;98878.06;5100209;28;20898;-62
2021/04/29 05:31:29;;;;;;;16.17;14.50;;;;;;;13.52;64.85;98879.94;5072306;28;20473;-62
2021/04/29 05:33:55;;;;;;;16.70;13.73;;;;;;;13.47;64.96;98876.13;5092170;28;20490;-61
2021/04/29 05:36:22;;;;;;;17.63;14.50;;;;;;;13.62;64.85;98866.16;5094626;28;20483;-61
2021/04/29 05:38:49;;;;;;;19.07;14.80;;;;;;;13.64;64.68;98874.84;5092530;28;20857;-61
2021/04/29 05:41:16;;;;;;;16.93;15.07;;;;;;;13.55;64.74;98873.31;5084209;28;20500;-62
2021/04/29 05:43:43;;;;;;;16.80;15.00;;;;;;;13.84;64.11;98877.69;5086425;28;20534;-61
2021/04/29 05:46:09;;;;;;;16.40;14.30;;;;;;;13.83;64.09;98876.00;5080418;28;20514;-62
2021/04/29 05:48:35;;;;;;;16.70;15.00;;;;;;;13.84;64.13;98877.69;5082337;28;20448;-61
2021/04/29 05:51:02;;;;;;;23.53;16.90;;;;;;;13.33;65.52;98877.88;5085075;28;20539;-61
2021/04/29 05:53:28;;;;;;;17.03;15.33;;;;;;;13.51;65.03;98883.63;5096725;28;20543;-62
2021/04/29 05:55:54;;;;;;;19.73;16.67;;;;;;;13.53;65.01;98876.19;5100134;28;20485;-62
2021/04/29 05:58:20;;;;;;;16.73;14.80;;;;;;;13.56;65.27;98873.13;5087644;28;20972;-63
2021/04/29 06:00:47;;;;;;;16.23;14.53;;;;;;;13.79;64.68;98880.13;5078422;28;20499;-63
2021/04/29 06:03:14;;;;;;;16.77;15.10;;;;;;;13.86;63.83;98883.69;5080582;28;20428;-63
2021/04/29 06:05:40;;;;;;;16.47;14.70;;;;;;;13.77;64.43;98879.50;5076816;28;20471;-63
2021/04/29 06:08:06;;;;;;;15.37;13.77;;;;;;;14.05;63.19;98878.66;5074656;28;20448;-62
2021/04/29 06:10:35;;;;;;;17.70;15.80;;;;;;;14.16;62.92;98880.78;5077963;28;20506;-62
2021/04/29 06:13:01;;;;;;;17.00;14.87;;;;;;;13.68;63.78;98876.13;5079815;28;20441;-60
2021/04/29 06:15:27;;;;;;;14.17;12.70;;;;;;;14.23;62.88;98872.75;5078651;28;20498;-62
2021/04/29 06:17:54;;;;;;;15.27;13.73;;;;;;;14.30;62.73;98876.31;5080063;28;20434;-62
2021/04/29 06:20:21;;;;;;;16.70;15.10;;;;;;;14.37;62.60;98876.34;5079185;28;20513;-60
2021/04/29 06:22:47;;;;;;;17.80;14.03;;;;;;;14.57;61.77;98869.22;5078504;28;20432;-62
2021/04/29 06:25:13;;;;;;;16.50;13.13;;;;;;;14.58;61.35;98875.41;5079410;28;20456;-62
2021/04/29 06:27:40;;;;;;;14.13;12.83;;;;;;;14.62;61.06;98876.72;5079392;28;21038;-62
2021/04/29 06:30:08;;;;;;;15.63;14.07;;;;;;;14.74;61.46;98875.13;5091233;28;20539;-62
2021/04/29 06:32:34;;;;;;;14.73;12.33;;;;;;;14.79;61.27;98872.66;5099432;28;20458;-62
2021/04/29 06:35:02;;;;;;;16.13;14.53;;;;;;;14.83;61.24;98876.59;5100324;28;20463;-63
2021/04/29 06:37:28;;;;;;;15.30;13.87;;;;;;;14.87;61.22;98877.00;5098491;28;20485;-63
2021/04/29 06:39:54;;;;;;;14.00;12.70;;;;;;;14.85;61.09;98873.69;5099523;28;20489;-63
2021/04/29 06:42:20;;;;;;;14.97;13.33;;;;;;;14.80;61.24;98863.53;5098941;28;21023;-62
2021/04/29 06:44:47;;;;;;;15.20;13.63;;;;;;;14.84;61.16;98875.56;5098733;28;20424;-62
2021/04/29 06:47:17;;;;;;;15.80;14.20;;;;;;;14.97;60.89;98868.56;5099601;28;20474;-62
2021/04/29 06:49:43;;;;;;;17.13;15.43;;;;;;;15.04;61.33;98875.59;5100177;28;20459;-63
2021/04/29 06:52:10;;;;;;;15.50;13.57;;;;;;;15.03;60.71;98879.34;5102301;28;20466;-61
2021/04/29 06:54:36;;;;;;;15.13;13.53;;;;;;;15.38;60.12;98872.97;5094838;28;20475;-62
2021/04/29 06:57:03;;;;;;;14.27;12.63;;;;;;;15.65;58.34;98875.69;5085797;28;20490;-63
2021/04/29 06:59:29;;;;;;;16.20;11.60;;;;;;;16.10;57.76;98878.59;5096979;28;20455;-64
2021/04/29 07:01:55;;;;;;;11.97;10.70;;;;;;;16.49;56.58;98876.81;5115197;28;20495;-61
2021/04/29 07:04:22;;;;;;;12.30;10.37;;;;;;;16.46;55.48;98883.47;5123908;28;20426;-62
2021/04/29 07:06:48;;;;;;;11.50;10.37;;;;;;;16.65;55.37;98880.94;5089766;28;20471;-64
2021/04/29 07:09:15;;;;;;;11.57;10.40;;;;;;;15.73;56.46;98883.56;5101737;28;20960;-64
2021/04/29 07:11:42;;;;;;;11.27;9.60;;;;;;;16.27;55.04;98884.38;5089847;28;20494;-63
2021/04/29 07:14:08;;;;;;;10.30;9.30;;;;;;;16.89;52.91;98879.38;5099807;28;20463;-66
2021/04/29 07:16:34;;;;;;;13.13;9.50;;;;;;;17.01;52.98;98882.22;5099623;28;20987;-64
2021/04/29 07:19:00;;;;;;;12.20;9.07;;;;;;;17.56;51.00;98885.19;5094270;28;20779;-67
2021/04/29 07:21:26;;;;;;;8.27;7.40;;;;;;;16.77;51.99;98884.59;5081584;28;20472;-65
2021/04/29 07:23:53;;;;;;;10.30;8.63;;;;;;;17.44;50.20;98887.75;5091914;28;20431;-65
2021/04/29 07:26:20;;;;;;;10.50;8.80;;;;;;;17.16;52.14;98882.75;5102274;28;20501;-64
2021/04/29 07:28:46;;;;;;;9.97;8.60;;;;;;;17.10;51.69;98891.75;5100717;28;20463;-63
2021/04/29 07:31:13;;;;;;;9.90;8.87;;;;;;;17.00;52.46;98889.50;5101219;28;20890;-63
2021/04/29 07:33:40;;;;;;;11.03;9.87;;;;;;;16.15;54.60;98895.78;5083829;28;20579;-63
2021/04/29 07:36:06;;;;;;;12.27;9.67;;;;;;;16.51;53.77;98902.56;5078582;28;20877;-66
2021/04/29 07:38:33;;;;;;;8.80;7.80;;;;;;;16.77;51.22;98881.91;5091277;28;20452;-67
2021/04/29 07:40:59;;;;;;;8.70;6.33;;;;;;;16.37;50.18;98884.75;5121292;28;20881;-67
2021/04/29 07:43:26;;;;;;;8.30;7.50;;;;;;;16.35;50.11;98886.81;5108706;28;20693;-65
2021/04/29 07:45:52;;;;;;;13.57;8.00;;;;;;;15.77;50.79;98892.91;5095724;28;21225;-66
2021/04/29 07:48:19;;;;;;;10.40;8.27;;;;;;;16.20;49.96;98895.16;5090049;28;20435;-66
2021/04/29 07:50:45;;;;;;;10.17;7.70;;;;;;;15.81;51.00;98891.44;5100866;28;20470;-66
2021/04/29 07:53:11;;;;;;;10.30;8.63;;;;;;;16.18;50.30;98889.97;5103547;28;20475;-66
2021/04/29 07:55:37;;;;;;;11.83;10.10;;;;;;;15.53;51.92;98879.00;5108840;28;20468;-69
2021/04/29 07:58:04;;;;;;;12.37;9.20;;;;;;;16.18;50.60;98881.88;5096874;28;20451;-66
2021/04/29 08:00:31;;;;;;;10.47;9.37;;;;;;;15.91;51.34;98886.47;5093994;28;20471;-67
2021/04/29 08:02:57;;;;;;;16.90;9.87;;;;;;;15.92;51.22;98887.28;5081623;28;20697;-66
2021/04/29 08:05:25;;;;;;;14.67;10.80;;;;;;;16.28;51.58;98892.22;5080568;28;20463;-65
2021/04/29 08:07:51;;;;;;;12.43;11.13;;;;;;;15.54;51.86;98893.31;5101385;28;20451;-66
2021/04/29 08:10:18;;;;;;;14.63;12.13;;;;;;;15.42;53.30;98895.78;5099065;28;20454;-65
2021/04/29 08:12:44;;;;;;;14.23;11.97;;;;;;;16.00;52.00;98897.88;5100221;28;20431;-64
2021/04/29 08:15:11;;;;;;;16.03;12.57;;;;;;;15.93;52.41;98895.19;5101252;28;20470;-64
2021/04/29 08:17:39;;;;;;;15.90;12.50;;;;;;;15.42;52.01;98906.56;5102079;28;20457;-65
2021/04/29 08:20:06;;;;;;;14.70;12.23;;;;;;;16.54;51.16;98902.13;5098138;28;20455;-63
2021/04/29 08:22:33;;;;;;;14.70;11.60;;;;;;;17.17;49.55;98903.34;5087397;28;20864;-62
2021/04/29 08:25:00;;;;;;;16.13;13.30;;;;;;;16.84;48.67;98896.22;5094990;28;20941;-61
2021/04/29 08:27:27;;;;;;;16.83;14.00;;;;;;;16.56;49.01;98908.13;5083973;28;20479;-62
2021/04/29 08:29:53;;;;;;;16.30;13.80;;;;;;;16.10;49.44;98909.06;5100888;28;20490;-62
2021/04/29 08:32:20;;;;;;;18.00;13.70;;;;;;;16.04;49.27;98906.38;5097197;28;20570;-65
2021/04/29 08:34:48;;;;;;;19.13;14.57;;;;;;;16.47;48.67;98903.19;5080086;28;20511;-67
2021/04/29 08:37:16;;;;;;;17.80;13.83;;;;;;;17.83;46.73;98912.84;5080432;28;20566;-66
2021/04/29 08:39:43;;;;;;;14.90;12.70;;;;;;;18.23;43.69;98898.16;5080098;28;20488;-66
2021/04/29 08:42:09;;;;;;;16.13;14.33;;;;;;;18.78;43.25;98908.16;5080963;28;20471;-64
2021/04/29 08:44:36;;;;;;;17.60;14.40;;;;;;;18.71;42.54;98902.00;5098493;28;20428;-66
2021/04/29 08:47:02;;;;;;;21.83;16.83;;;;;;;20.19;38.39;98899.63;5080204;28;20471;-66
2021/04/29 08:49:28;;;;;;;19.50;15.40;;;;;;;19.88;38.94;98898.09;5079346;28;20456;-67
2021/04/29 08:51:56;;;;;;;22.27;17.23;;;;;;;19.60;38.89;98893.28;5080150;28;20556;-67
2021/04/29 08:54:22;;;;;;;19.63;16.97;;;;;;;19.81;40.45;98895.50;5080775;28;20483;-64
2021/04/29 08:56:48;;;;;;;24.17;18.90;;;;;;;19.06;39.15;98899.50;5079362;28;20487;-67
2021/04/29 08:59:15;;;;;;;23.23;20.50;;;;;;;19.59;37.84;98897.06;5079655;28;20828;-67
2021/04/29 09:01:42;;;;;;;29.57;22.80;;;;;;;20.74;36.62;98901.09;5079827;28;20501;-67
2021/04/29 09:04:09;;;;;;;23.67;21.07;;;;;;;20.59;36.00;98901.59;5080446;28;20623;-65
2021/04/29 09:06:36;;;;;;;26.30;22.30;;;;;;;21.23;34.60;98903.41;5079685;28;20558;-65
2021/04/29 09:09:03;;;;;;;26.63;21.03;;;;;;;20.88;34.94;98902.50;5079466;28;20455;-65
2021/04/29 09:11:30;;;;;;;22.90;20.00;;;;;;;22.13;34.07;98903.59;5079006;28;20844;-65
2021/04/29 09:13:58;;;;;;;22.10;19.73;;;;;;;22.49;33.24;98899.50;5094509;28;20501;-69
2021/04/29 09:16:24;;;;;;;27.80;21.87;;;;;;;21.51;35.56;98901.75;5080065;28;20472;-67
2021/04/29 09:18:50;;;;;;;27.00;24.00;;;;;;;19.18;38.75;98888.69;5078206;28;20456;-66
2021/04/29 09:21:17;;;;;;;26.13;22.40;;;;;;;19.56;37.75;98901.91;5078316;28;20487;-67
2021/04/29 09:23:46;;;;;;;27.30;22.60;;;;;;;19.94;37.59;98899.84;5079302;28;20443;-68
2021/04/29 09:26:14;;;;;;;28.47;23.40;;;;;;;19.82;37.87;98905.25;5079189;28;20475;-66
2021/04/29 09:28:42;;;;;;;27.30;23.47;;;;;;;18.95;38.75;98902.97;5087736;28;20454;-65
2021/04/29 09:31:11;;;;;;;30.57;24.33;;;;;;;17.78;41.33;98909.16;5100123;28;20475;-66
2021/04/29 09:33:40;;;;;;;28.80;24.07;;;;;;;17.22;41.49;98903.50;5100445;28;20483;-67
2021/04/29 09:36:08;;;;;;;28.27;22.30;;;;;;;17.24;41.18;98898.72;5078230;28;20472;-67
2021/04/29 09:38:36;;;;;;;25.90;22.70;;;;;;;17.41;40.19;98901.72;5079485;28;20474;-66
2021/04/29 09:41:03;;;;;;;27.17;21.90;;;;;;;17.49;40.07;98904.16;5061652;28;20769;-68
2021/04/29 09:43:30;;;;;;;28.40;24.00;;;;;;;18.00;40.16;98902.34;5091744;28;20478;-67
2021/04/29 09:45:58;;;;;;;46.03;23.10;;;;;;;18.63;37.67;98893.13;5100027;28;20474;-67
2021/04/29 09:48:34;;;;;;;26.77;23.00;;;;;;;17.68;39.26;98907.75;5078257;28;21027;-67
2021/04/29 09:51:01;;;;;;;28.10;22.90;;;;;;;17.56;39.42;98908.69;5078887;28;20478;-66
2021/04/29 09:53:38;;;;;;;27.33;24.00;;;;;;;18.62;37.12;98906.88;5079663;28;20487;-65
2021/04/29 09:56:08;;;;;;;26.27;23.50;;;;;;;21.08;33.25;98901.25;5078446;28;20467;-66
2021/04/29 09:58:36;;;;;;;28.03;22.03;;;;;;;20.25;34.03;98900.56;5087583;28;20436;-67
2021/04/29 10:01:04;;;;;;;26.47;23.67;;;;;;;19.64;34.99;98905.34;5078944;28;21061;-65
2021/04/29 10:03:31;;;;;;;27.80;23.70;;;;;;;21.88;31.07;98906.75;5078884;28;20428;-67
2021/04/29 10:05:58;;;;;;;26.00;22.47;;;;;;;22.10;29.73;98906.78;5079227;28;20487;-65
2021/04/29 10:08:26;;;;;;;25.67;21.67;;;;;;;22.57;29.77;98892.81;5079634;28;20448;-64
2021/04/29 10:10:56;;;;;;;25.40;21.07;;;;;;;23.48;27.88;98897.66;5076484;28;20904;-61
2021/04/29 10:13:29;;;;;;;24.80;22.13;;;;;;;22.16;28.53;98903.09;5091527;28;20435;-64
2021/04/29 10:15:57;;;;;;;25.33;21.60;;;;;;;20.00;32.62;98903.50;5081167;28;20509;-62
2021/04/29 10:18:23;;;;;;;27.60;24.70;;;;;;;19.36;34.27;98907.63;5078950;28;20449;-62
2021/04/29 10:20:51;;;;;;;24.93;22.37;;;;;;;19.10;34.58;98906.13;5078392;28;20479;-62
2021/04/29 10:23:20;;;;;;;23.80;21.20;;;;;;;18.39;35.69;98916.50;5079417;28;20443;-62
2021/04/29 10:25:50;;;;;;;26.90;22.97;;;;;;;18.53;36.09;98916.38;5081123;28;20486;-62
2021/04/29 10:28:16;;;;;;;23.83;21.30;;;;;;;18.36;35.85;98902.59;5091908;28;20945;-62
2021/04/29 10:30:43;;;;;;;26.90;21.70;;;;;;;19.32;34.43;98913.72;5080669;28;20483;-62
2021/04/29 10:33:15;;;;;;;25.17;22.47;;;;;;;18.38;34.49;98908.59;5083081;28;20420;-63
2021/04/29 10:35:50;;;;;;;26.53;23.57;;;;;;;18.28;35.06;98922.66;5081983;28;20484;-63
2021/04/29 10:38:23;;;;;;;27.60;23.20;;;;;;;17.16;37.10;98927.84;5083449;28;20450;-63
2021/04/29 10:40:49;;;;;;;26.33;22.30;;;;;;;17.82;36.19;98923.88;5080828;28;20475;-62
2021/04/29 10:43:28;;;;;;;30.53;25.07;;;;;;;17.17;36.90;98924.09;5083423;28;20440;-63
2021/04/29 10:45:54;;;;;;;26.87;24.00;;;;;;;17.22;37.01;98921.56;5081574;28;20479;-63
2021/04/29 10:48:21;;;;;;;32.20;25.40;;;;;;;17.70;36.98;98929.16;5082318;28;20493;-64
2021/04/29 10:50:48;;;;;;;32.53;23.33;;;;;;;18.55;34.91;98919.69;5081562;28;20479;-62
2021/04/29 10:53:27;;;;;;;28.60;25.37;;;;;;;19.10;34.43;98927.78;5079108;28;20446;-65
2021/04/29 10:55:58;;;;;;;28.43;24.50;;;;;;;18.56;34.42;98926.75;5080475;28;20490;-61
2021/04/29 10:58:24;;;;;;;30.90;23.93;;;;;;;18.75;34.77;98933.81;5082328;28;20444;-62
2021/04/29 11:00:59;;;;;;;26.50;23.80;;;;;;;18.34;35.63;98929.06;5081301;28;20571;-63
2021/04/29 11:03:31;;;;;;;36.63;27.07;;;;;;;17.91;36.56;98925.28;5081193;28;20438;-64
2021/04/29 11:06:08;;;;;;;33.73;26.40;;;;;;;17.96;36.47;98933.56;5081181;28;20730;-64
2021/04/29 11:08:36;;;;;;;19.73;16.13;;;;;;;16.72;33.46;98919.50;5082636;28;20431;-61
2021/04/29 11:11:03;;;;;;;25.37;22.53;;;;;;;18.19;34.10;98926.69;5080143;28;20502;-62
2021/04/29 11:13:29;;;;;;;27.60;23.10;;;;;;;19.35;32.71;98924.09;5082140;28;20447;-60
2021/04/29 11:15:57;;;;;;;29.67;24.80;;;;;;;19.64;33.84;98922.44;5080959;28;20490;-59
2021/04/29 11:18:24;;;;;;;27.50;24.60;;;;;;;20.14;32.20;98926.66;5082245;28;20464;-66
2021/04/29 11:20:52;;;;;;;28.77;24.43;;;;;;;20.56;31.75;98929.22;5081263;28;20529;-65
2021/04/29 11:23:19;;;;;;;26.13;23.40;;;;;;;20.60;32.00;98924.94;5082451;28;20547;-65